createdAt,value
2023-03-22T00:01:46.579Z,11.16
2023-03-22T00:04:13.130Z,11.08
2023-03-22T00:06:39.799Z,11.10
2023-03-22T00:09:06.620Z,11.11
2023-03-22T00:11:33.102Z,11.10
2023-03-22T00:13:59.693Z,11.09
2023-03-22T00:16:26.403Z,11.07
2023-03-22T00:18:54.432Z,11.07
2023-03-22T00:21:21.279Z,11.03
2023-03-22T00:23:47.715Z,11.02
2023-03-22T00:26:15.467Z,10.98
2023-03-22T00:28:42.551Z,10.91
2023-03-22T00:31:09.496Z,11.02
2023-03-22T00:33:36.524Z,11.00
2023-03-22T00:36:08.690Z,10.99
2023-03-22T00:38:42.794Z,10.92
2023-03-22T00:41:14.337Z,10.97
2023-03-22T00:43:41.158Z,10.92
2023-03-22T00:46:08.193Z,10.89
2023-03-22T00:48:34.620Z,10.92
2023-03-22T00:51:01.235Z,10.92
2023-03-22T00:53:30.103Z,10.87
2023-03-22T00:55:57.126Z,10.90
2023-03-22T00:58:23.894Z,10.88
2023-03-22T01:00:51.591Z,10.88
2023-03-22T01:03:18.223Z,10.89
2023-03-22T01:05:46.065Z,10.87
2023-03-22T01:08:12.974Z,10.86
2023-03-22T01:10:41.023Z,10.87
2023-03-22T01:13:08.421Z,10.86
2023-03-22T01:15:35.181Z,10.85
2023-03-22T01:18:01.808Z,10.84
2023-03-22T01:20:28.460Z,10.84
2023-03-22T01:22:54.999Z,10.77
2023-03-22T01:25:21.579Z,10.82
2023-03-22T01:27:48.030Z,10.81
2023-03-22T01:30:14.689Z,10.80
2023-03-22T01:32:41.147Z,10.84
2023-03-22T01:35:09.132Z,10.81
2023-03-22T01:37:36.690Z,10.82
2023-03-22T01:40:04.646Z,10.82
2023-03-22T01:42:31.970Z,10.79
2023-03-22T01:45:32.621Z,10.76
2023-03-22T01:48:03.620Z,10.81
2023-03-22T01:50:37.447Z,10.79
2023-03-22T01:53:07.557Z,10.79
2023-03-22T01:55:35.579Z,10.81
2023-03-22T01:58:17.954Z,10.78
2023-03-22T02:00:53.348Z,10.77
2023-03-22T02:03:50.985Z,10.77
2023-03-22T02:06:20.259Z,10.79
2023-03-22T02:08:52.918Z,10.78
2023-03-22T02:12:12.299Z,10.76
2023-03-22T02:15:03.549Z,10.77
2023-03-22T02:18:16.508Z,10.76
2023-03-22T02:21:12.222Z,10.73
2023-03-22T02:23:47.084Z,10.76
2023-03-22T02:26:35.887Z,10.74
2023-03-22T02:29:14.603Z,10.76
2023-03-22T02:32:29.065Z,10.73
2023-03-22T02:35:13.958Z,10.75
2023-03-22T02:38:16.331Z,10.74
2023-03-22T02:40:58.093Z,10.75
2023-03-22T02:43:40.656Z,10.76
2023-03-22T02:46:18.592Z,10.74
2023-03-22T02:49:10.639Z,10.74
2023-03-22T02:51:42.434Z,10.75
2023-03-22T02:54:08.802Z,10.76
2023-03-22T02:56:49.881Z,10.72
2023-03-22T02:59:18.848Z,10.77
2023-03-22T03:01:50.611Z,10.75
2023-03-22T03:04:21.647Z,10.77
2023-03-22T03:06:51.831Z,10.76
2023-03-22T03:09:20.601Z,10.76
2023-03-22T03:11:50.100Z,10.77
2023-03-22T03:14:30.113Z,10.75
2023-03-22T03:17:14.995Z,10.76
2023-03-22T03:19:58.295Z,10.74
2023-03-22T03:22:43.563Z,10.74
2023-03-22T03:25:18.332Z,10.75
2023-03-22T03:28:03.477Z,10.75
2023-03-22T03:30:35.846Z,10.74
2023-03-22T03:33:09.421Z,10.71
2023-03-22T03:36:08.242Z,10.72
2023-03-22T03:38:39.850Z,10.70
2023-03-22T03:41:12.337Z,10.69
2023-03-22T03:43:40.328Z,10.75
2023-03-22T03:46:08.399Z,10.74
2023-03-22T03:48:37.500Z,10.75
2023-03-22T03:51:04.268Z,10.74
2023-03-22T03:53:31.364Z,10.74
2023-03-22T03:55:58.538Z,10.76
2023-03-22T03:58:30.690Z,10.74
2023-03-22T04:00:57.436Z,10.73
2023-03-22T04:03:40.720Z,10.73
2023-03-22T04:06:25.894Z,10.73
2023-03-22T04:08:58.048Z,10.74
2023-03-22T04:11:30.103Z,10.69
2023-03-22T04:13:59.900Z,10.71
2023-03-22T04:16:26.513Z,10.70
2023-03-22T04:18:53.385Z,10.71
2023-03-22T04:21:21.737Z,10.71
2023-03-22T04:23:55.836Z,10.73
2023-03-22T04:26:24.055Z,10.70
2023-03-22T04:29:14.275Z,10.68
2023-03-22T04:31:45.603Z,10.71
2023-03-22T04:34:21.598Z,10.70
2023-03-22T04:36:54.671Z,10.64
2023-03-22T04:39:28.369Z,10.69
2023-03-22T04:42:20.875Z,10.68
2023-03-22T04:44:50.758Z,10.65
2023-03-22T04:47:18.109Z,10.66
2023-03-22T04:49:45.266Z,10.68
2023-03-22T04:52:13.658Z,10.66
2023-03-22T04:54:47.142Z,10.63
2023-03-22T04:57:13.563Z,10.69
2023-03-22T04:59:44.847Z,10.68
2023-03-22T05:02:11.381Z,10.63
2023-03-22T05:04:41.932Z,10.68
2023-03-22T05:07:20.576Z,10.64
2023-03-22T05:09:52.102Z,10.64
2023-03-22T05:12:18.753Z,10.67
2023-03-22T05:14:50.760Z,10.62
2023-03-22T05:17:22.800Z,10.63
2023-03-22T05:19:51.910Z,10.66
2023-03-22T05:22:19.169Z,10.65
2023-03-22T05:24:48.659Z,10.66
2023-03-22T05:27:30.922Z,10.63
2023-03-22T05:30:09.962Z,10.63
2023-03-22T05:32:47.489Z,10.61
2023-03-22T05:35:14.261Z,10.62
2023-03-22T05:37:45.610Z,10.61
2023-03-22T05:40:14.757Z,10.61
2023-03-22T05:42:44.200Z,10.57
2023-03-22T05:45:22.432Z,10.56
2023-03-22T05:47:58.252Z,10.62
2023-03-22T05:50:26.673Z,10.62
2023-03-22T05:52:53.341Z,10.59
2023-03-22T05:55:53.087Z,10.61
2023-03-22T05:58:20.070Z,10.60
2023-03-22T06:00:51.312Z,10.62
2023-03-22T06:03:38.868Z,10.61
2023-03-22T06:06:13.741Z,10.61
2023-03-22T06:08:52.161Z,10.61
2023-03-22T06:11:19.274Z,10.59
2023-03-22T06:13:46.088Z,10.62
2023-03-22T06:16:14.602Z,10.61
2023-03-22T06:18:42.516Z,10.63
2023-03-22T06:21:11.856Z,10.64
2023-03-22T06:23:38.295Z,10.64
2023-03-22T06:26:05.594Z,10.65
2023-03-22T06:28:34.899Z,10.64
2023-03-22T06:31:07.617Z,10.66
2023-03-22T06:33:42.568Z,10.64
2023-03-22T06:36:21.937Z,10.62
2023-03-22T06:39:07.886Z,10.67
2023-03-22T06:41:34.686Z,10.68
2023-03-22T06:44:02.508Z,10.71
2023-03-22T06:46:58.461Z,10.66
2023-03-22T06:49:47.857Z,10.71
2023-03-22T06:52:20.214Z,10.74
2023-03-22T06:54:46.785Z,10.74
2023-03-22T06:57:13.889Z,10.75
2023-03-22T06:59:40.406Z,10.79
2023-03-22T07:02:06.972Z,10.76
2023-03-22T07:04:34.380Z,10.78
2023-03-22T07:07:00.976Z,10.82
2023-03-22T07:09:27.705Z,10.85
2023-03-22T07:11:57.658Z,10.88
2023-03-22T07:14:24.356Z,10.86
2023-03-22T07:17:03.513Z,10.91
2023-03-22T07:19:31.880Z,10.94
2023-03-22T07:22:03.611Z,10.93
2023-03-22T07:24:32.174Z,10.97
2023-03-22T07:27:00.402Z,10.95
2023-03-22T07:29:28.230Z,11.00
2023-03-22T07:31:54.805Z,11.02
2023-03-22T07:34:24.742Z,11.02
2023-03-22T07:37:03.379Z,10.99
2023-03-22T07:39:30.745Z,11.03
2023-03-22T07:41:57.991Z,11.08
2023-03-22T07:44:24.642Z,11.11
2023-03-22T07:47:09.880Z,11.11
2023-03-22T07:49:43.793Z,11.12
2023-03-22T07:52:15.291Z,11.15
2023-03-22T07:54:42.184Z,11.18
2023-03-22T07:57:09.556Z,11.17
2023-03-22T07:59:44.678Z,11.21
2023-03-22T08:02:13.888Z,11.23
2023-03-22T08:04:46.313Z,11.23
2023-03-22T08:07:26.011Z,11.25
2023-03-22T08:09:52.824Z,11.27
2023-03-22T08:12:19.648Z,11.29
2023-03-22T08:14:52.842Z,11.32
2023-03-22T08:17:23.760Z,11.35
2023-03-22T08:19:50.617Z,11.36
2023-03-22T08:22:29.638Z,11.40
2023-03-22T08:25:14.494Z,11.42
2023-03-22T08:27:41.078Z,11.43
2023-03-22T08:30:09.805Z,11.41
2023-03-22T08:32:36.506Z,11.46
2023-03-22T08:35:05.205Z,11.48
2023-03-22T08:37:31.646Z,11.52
2023-03-22T08:40:01.289Z,11.55
2023-03-22T08:42:41.637Z,11.53
2023-03-22T08:45:10.299Z,11.59
2023-03-22T08:47:43.787Z,11.62
2023-03-22T08:50:11.480Z,11.62
2023-03-22T08:52:51.512Z,11.65
2023-03-22T08:55:30.069Z,11.68
2023-03-22T08:58:11.204Z,11.67
2023-03-22T09:00:49.278Z,11.69
2023-03-22T09:03:39.266Z,11.75
2023-03-22T09:06:06.708Z,11.78
2023-03-22T09:08:38.159Z,11.81
2023-03-22T09:11:10.611Z,11.84
2023-03-22T09:13:38.038Z,11.86
2023-03-22T09:16:08.949Z,11.89
2023-03-22T09:18:36.982Z,11.93
2023-03-22T09:21:10.653Z,11.92
2023-03-22T09:23:48.901Z,11.97
2023-03-22T09:26:18.625Z,11.98
2023-03-22T09:28:48.997Z,12.06
2023-03-22T09:31:18.530Z,12.07
2023-03-22T09:33:46.934Z,12.11
2023-03-22T09:36:13.923Z,12.12
2023-03-22T09:38:42.235Z,12.15
2023-03-22T09:41:18.308Z,12.17
2023-03-22T09:43:55.615Z,12.19
2023-03-22T09:46:35.950Z,12.22
2023-03-22T09:49:07.896Z,12.22
2023-03-22T09:51:41.227Z,12.27
2023-03-22T09:54:32.693Z,12.30
2023-03-22T09:57:08.551Z,12.33
2023-03-22T09:59:47.333Z,12.37
2023-03-22T10:02:37.600Z,12.41
2023-03-22T10:05:19.040Z,12.45
2023-03-22T10:08:20.324Z,12.46
2023-03-22T10:10:47.526Z,12.51
2023-03-22T10:13:34.192Z,12.53
2023-03-22T10:16:04.855Z,12.59
2023-03-22T10:18:38.126Z,12.58
2023-03-22T10:21:17.350Z,12.59
2023-03-22T10:23:44.215Z,12.67
2023-03-22T10:26:19.848Z,12.71
2023-03-22T10:28:49.587Z,12.76
2023-03-22T10:31:21.219Z,12.80
2023-03-22T10:34:08.354Z,12.82
2023-03-22T10:36:38.965Z,12.78
2023-03-22T10:39:27.077Z,12.88
2023-03-22T10:41:57.968Z,12.92
2023-03-22T10:44:27.965Z,12.95
2023-03-22T10:46:56.883Z,12.98
2023-03-22T10:49:38.395Z,12.99
2023-03-22T10:52:30.585Z,13.03
2023-03-22T10:55:01.292Z,13.02
2023-03-22T10:57:29.546Z,13.09
2023-03-22T10:59:57.113Z,13.08
2023-03-22T11:02:30.874Z,13.13
2023-03-22T11:05:05.858Z,13.16
2023-03-22T11:07:39.959Z,13.18
2023-03-22T11:10:09.385Z,13.21
2023-03-22T11:13:11.709Z,13.23
2023-03-22T11:16:04.215Z,13.23
2023-03-22T11:18:33.532Z,13.24
2023-03-22T11:21:24.159Z,13.28
2023-03-22T11:23:58.432Z,13.34
2023-03-22T11:26:31.360Z,13.36
2023-03-22T11:29:13.657Z,13.36
2023-03-22T11:32:01.546Z,13.39
2023-03-22T11:34:30.829Z,13.39
2023-03-22T11:37:00.888Z,13.43
2023-03-22T11:39:29.229Z,13.46
2023-03-22T11:42:06.232Z,13.47
2023-03-22T11:44:35.461Z,13.50
2023-03-22T11:47:04.921Z,13.52
2023-03-22T11:49:47.388Z,13.53
2023-03-22T11:52:26.984Z,13.55
2023-03-22T11:54:55.970Z,13.57
2023-03-22T11:57:27.493Z,13.61
2023-03-22T12:00:02.355Z,13.63
2023-03-22T12:02:36.758Z,13.65
2023-03-22T12:05:14.848Z,13.63
2023-03-22T12:07:42.830Z,13.66
2023-03-22T12:10:18.530Z,13.70
2023-03-22T12:12:59.832Z,13.71
2023-03-22T12:15:31.666Z,13.74
2023-03-22T12:18:08.103Z,13.74
2023-03-22T12:20:45.579Z,13.73
2023-03-22T12:23:16.246Z,13.78
2023-03-22T12:25:50.535Z,13.80
2023-03-22T12:28:22.798Z,13.80
2023-03-22T12:30:52.625Z,13.81
2023-03-22T12:33:24.477Z,13.83
2023-03-22T12:35:56.558Z,13.82
2023-03-22T12:38:44.702Z,13.82
2023-03-22T12:41:16.911Z,13.89
2023-03-22T12:43:56.726Z,13.88
2023-03-22T12:46:39.949Z,13.88
2023-03-22T12:49:28.298Z,13.92
2023-03-22T12:52:04.408Z,13.96
2023-03-22T12:54:31.379Z,14.00
2023-03-22T12:56:58.474Z,14.04
2023-03-22T12:59:31.362Z,14.05
2023-03-22T13:02:04.616Z,14.08
2023-03-22T13:04:37.332Z,14.10
2023-03-22T13:07:32.384Z,14.11
2023-03-22T13:10:00.805Z,14.15
2023-03-22T13:12:31.469Z,14.16
2023-03-22T13:15:28.503Z,14.19
2023-03-22T13:17:59.085Z,14.12
2023-03-22T13:20:28.152Z,14.22
2023-03-22T13:22:54.634Z,14.22
2023-03-22T13:25:35.006Z,14.21
2023-03-22T13:28:19.903Z,14.23
2023-03-22T13:30:55.205Z,14.29
2023-03-22T13:33:28.316Z,14.28
2023-03-22T13:35:58.900Z,14.31
2023-03-22T13:38:41.061Z,14.32
2023-03-22T13:41:27.972Z,14.32
2023-03-22T13:43:57.293Z,14.31
2023-03-22T13:46:44.699Z,14.36
2023-03-22T13:49:25.092Z,14.38
2023-03-22T13:51:52.564Z,14.37
2023-03-22T13:54:24.525Z,14.39
2023-03-22T13:56:57.262Z,14.40
2023-03-22T13:59:27.228Z,14.37
2023-03-22T14:02:16.300Z,14.38
2023-03-22T14:05:09.169Z,14.44
2023-03-22T14:07:42.836Z,14.41
2023-03-22T14:10:40.042Z,14.42
2023-03-22T14:13:34.776Z,14.43
2023-03-22T14:16:19.939Z,14.40
2023-03-22T14:18:49.117Z,14.45
2023-03-22T14:21:21.410Z,14.45
